Time;durP1;ratioP1;P1;durP2;ratioP2;P2;SDS_P1;SDS_P2;PMS_P1;PMS_P2;Temp;Humidity;BMP_temperature;BMP_pressure;BME280_temperature;BME280_humidity;BME280_pressure;Samples;Min_cycle;Max_cycle;Signal;HPM_P1;HPM_P2
2023/11/05 00:01:23;;;;;;;1.95;1.10;;;;;;;8.47;100.00;94863.34;6092527;19;20006;-74
2023/11/05 00:03:24;;;;;;;1.30;0.88;;;;;;;8.46;100.00;94870.09;6097045;19;20002;-74
2023/11/05 00:05:24;;;;;;;1.80;0.95;;;;;;;8.47;100.00;94866.09;6097055;19;20023;-74
2023/11/05 00:07:24;;;;;;;1.67;1.00;;;;;;;8.48;100.00;94869.63;6098507;19;20014;-74
2023/11/05 00:09:25;;;;;;;2.95;1.38;;;;;;;8.53;100.00;94869.06;6098471;19;20100;-74
2023/11/05 00:11:25;;;;;;;1.08;0.90;;;;;;;8.51;100.00;94863.97;6098254;19;20036;-74
2023/11/05 00:13:26;;;;;;;2.15;0.90;;;;;;;8.55;100.00;94859.09;6096761;19;20002;-74
2023/11/05 00:15:26;;;;;;;0.90;0.90;;;;;;;8.57;100.00;94864.94;6097367;19;20070;-74
2023/11/05 00:17:26;;;;;;;1.45;0.90;;;;;;;8.63;100.00;94865.13;6097215;19;20007;-74
2023/11/05 00:19:27;;;;;;;1.15;1.00;;;;;;;8.63;100.00;94859.59;6097791;19;19999;-74
2023/11/05 00:21:27;;;;;;;1.63;1.05;;;;;;;8.57;100.00;94859.41;6098168;19;20019;-74
2023/11/05 00:23:27;;;;;;;2.05;0.98;;;;;;;8.53;100.00;94861.56;6097438;19;20034;-74
2023/11/05 00:25:28;;;;;;;1.30;0.90;;;;;;;8.54;100.00;94851.31;6096762;19;20002;-74
2023/11/05 00:27:28;;;;;;;1.10;0.90;;;;;;;8.55;100.00;94852.84;6098051;19;20007;-74
2023/11/05 00:29:29;;;;;;;1.13;0.80;;;;;;;8.48;100.00;94847.59;6100620;19;20646;-74
2023/11/05 00:31:29;;;;;;;1.40;0.80;;;;;;;8.44;100.00;94847.75;6102824;19;20003;-74
2023/11/05 00:33:31;;;;;;;1.63;0.80;;;;;;;8.40;100.00;94845.09;6105074;19;20013;-74
2023/11/05 00:35:31;;;;;;;1.60;0.90;;;;;;;8.44;100.00;94848.50;6103395;19;20011;-74
2023/11/05 00:37:32;;;;;;;1.73;1.08;;;;;;;8.42;100.00;94850.91;6102962;19;20021;-74
2023/11/05 00:39:32;;;;;;;1.27;0.90;;;;;;;8.38;100.00;94853.06;6104104;19;20010;-74
2023/11/05 00:41:32;;;;;;;2.15;0.90;;;;;;;8.33;100.00;94859.13;6105058;19;20035;-74
2023/11/05 00:43:34;;;;;;;1.45;0.90;;;;;;;8.34;100.00;94846.88;6105101;19;20050;-74
2023/11/05 00:45:34;;;;;;;1.40;0.88;;;;;;;8.36;100.00;94855.50;6103178;19;20014;-74
2023/11/05 00:47:34;;;;;;;2.33;0.80;;;;;;;8.33;100.00;94833.56;6104869;19;20390;-74
2023/11/05 00:49:35;;;;;;;0.95;0.70;;;;;;;8.40;100.00;94836.06;6104920;19;20003;-74
2023/11/05 00:51:35;;;;;;;1.77;0.80;;;;;;;8.39;100.00;94829.81;6104603;19;20327;-74
2023/11/05 00:53:36;;;;;;;1.17;0.70;;;;;;;8.36;100.00;94838.22;6104713;19;20007;-74
2023/11/05 00:55:37;;;;;;;0.68;0.68;;;;;;;8.31;100.00;94833.25;6103207;19;20401;-74
2023/11/05 00:57:37;;;;;;;1.45;0.77;;;;;;;8.24;100.00;94822.50;6104759;19;20012;-74
2023/11/05 00:59:37;;;;;;;1.63;0.70;;;;;;;8.23;100.00;94821.72;6103991;19;20077;-74
2023/11/05 01:01:38;;;;;;;0.93;0.70;;;;;;;8.27;100.00;94822.34;6104738;19;20032;-74
2023/11/05 01:03:38;;;;;;;0.90;0.80;;;;;;;8.23;100.00;94812.69;6102235;19;20006;-74
2023/11/05 01:05:38;;;;;;;0.82;0.75;;;;;;;8.28;100.00;94812.91;6100360;19;20010;-74
2023/11/05 01:07:39;;;;;;;1.50;0.70;;;;;;;8.28;100.00;94818.41;6104229;19;20352;-74
2023/11/05 01:09:39;;;;;;;1.48;0.80;;;;;;;8.33;100.00;94809.53;6102986;19;20499;-74
2023/11/05 01:11:41;;;;;;;0.70;0.70;;;;;;;8.31;100.00;94817.50;6102299;19;20396;-74
2023/11/05 01:13:41;;;;;;;0.82;0.70;;;;;;;8.37;100.00;94820.47;6102438;19;20066;-74
2023/11/05 01:15:42;;;;;;;1.02;0.70;;;;;;;8.34;100.00;94810.31;6101917;19;20027;-74
2023/11/05 01:17:42;;;;;;;0.80;0.70;;;;;;;8.41;100.00;94808.06;6102651;19;20014;-74
2023/11/05 01:19:43;;;;;;;0.70;0.70;;;;;;;8.42;100.00;94825.38;6103052;19;20040;-74
2023/11/05 01:21:43;;;;;;;0.65;0.65;;;;;;;8.42;100.00;94806.84;6102727;19;20010;-74
2023/11/05 01:23:43;;;;;;;1.10;0.80;;;;;;;8.42;100.00;94812.34;6103590;19;20010;-74
2023/11/05 01:25:44;;;;;;;2.45;0.80;;;;;;;8.41;100.00;94807.31;6102154;19;20015;-74
2023/11/05 01:27:44;;;;;;;0.80;0.70;;;;;;;8.40;100.00;94819.53;6102940;19;20011;-74
2023/11/05 01:29:45;;;;;;;2.35;0.65;;;;;;;8.37;100.00;94821.22;6102291;19;20026;-74
2023/11/05 01:31:45;;;;;;;1.23;0.82;;;;;;;8.33;100.00;94820.56;6102712;19;20010;-74
2023/11/05 01:33:45;;;;;;;0.60;0.60;;;;;;;8.32;100.00;94832.78;6102257;19;20010;-74
2023/11/05 01:35:46;;;;;;;1.42;0.65;;;;;;;8.32;100.00;94830.03;6102052;19;20009;-74
2023/11/05 01:37:46;;;;;;;0.70;0.70;;;;;;;8.29;100.00;94828.19;6102340;19;20124;-74
2023/11/05 01:39:46;;;;;;;1.85;1.05;;;;;;;8.35;100.00;94829.16;6102191;19;20331;-74
2023/11/05 01:41:47;;;;;;;1.02;0.73;;;;;;;8.31;100.00;94836.78;6103249;19;20010;-74
2023/11/05 01:43:47;;;;;;;2.53;0.70;;;;;;;8.24;100.00;94814.22;6102335;19;20022;-74
2023/11/05 01:45:47;;;;;;;1.75;0.80;;;;;;;8.29;100.00;94808.16;6101376;19;20002;-74
2023/11/05 01:47:48;;;;;;;1.15;0.85;;;;;;;8.31;100.00;94798.22;6102819;19;20019;-74
2023/11/05 01:49:49;;;;;;;0.60;0.60;;;;;;;8.39;100.00;94815.25;6102623;19;20013;-74
2023/11/05 01:51:49;;;;;;;0.93;0.75;;;;;;;8.34;100.00;94804.78;6102433;19;20110;-74
2023/11/05 01:53:52;;;;;;;5.20;1.05;;;;;;;8.26;100.00;94795.28;6102906;19;20017;-74
2023/11/05 01:55:53;;;;;;;1.17;0.70;;;;;;;8.25;100.00;94796.50;6102254;19;20007;-74
2023/11/05 01:57:53;;;;;;;1.05;0.80;;;;;;;8.21;100.00;94809.66;6099703;19;20013;-74
2023/11/05 01:59:54;;;;;;;0.70;0.70;;;;;;;8.22;100.00;94795.41;6102177;19;20018;-74
2023/11/05 02:01:55;;;;;;;3.33;0.80;;;;;;;8.15;100.00;94787.44;6101937;19;20007;-74
2023/11/05 02:03:56;;;;;;;2.75;0.88;;;;;;;8.16;100.00;94797.22;6101391;19;20519;-74
2023/11/05 02:05:57;;;;;;;2.50;0.80;;;;;;;8.24;100.00;94779.19;6101074;19;20028;-74
2023/11/05 02:07:57;;;;;;;1.30;0.88;;;;;;;8.21;100.00;94782.88;6101574;19;20013;-74
2023/11/05 02:09:57;;;;;;;8.48;2.13;;;;;;;8.14;100.00;94775.66;6102523;19;20501;-74
2023/11/05 02:12:02;;;;;;;8.38;1.80;;;;;;;8.09;100.00;94780.97;6102120;19;19998;-74
2023/11/05 02:14:02;;;;;;;6.47;2.33;;;;;;;8.04;100.00;94776.06;6100630;19;20007;-74
2023/11/05 02:16:03;;;;;;;5.38;1.88;;;;;;;8.03;100.00;94783.56;6101059;19;20020;-74
2023/11/05 02:18:04;;;;;;;3.67;1.65;;;;;;;8.06;100.00;94781.88;6101907;19;20002;-73
2023/11/05 02:20:06;;;;;;;4.07;1.40;;;;;;;8.04;100.00;94773.31;6100191;19;19999;-74
2023/11/05 02:22:14;;;;;;;2.78;1.42;;;;;;;8.06;100.00;94773.63;6100912;19;20010;-74
2023/11/05 02:24:15;;;;;;;2.60;1.35;;;;;;;8.11;100.00;94756.53;6100064;19;19998;-74
2023/11/05 02:26:15;;;;;;;8.82;2.00;;;;;;;8.13;100.00;94773.34;6101272;19;20030;-74
2023/11/05 02:28:15;;;;;;;2.70;1.45;;;;;;;8.19;100.00;94752.25;6101052;19;20022;-74
2023/11/05 02:30:22;;;;;;;4.20;1.20;;;;;;;8.19;100.00;94755.00;6102203;19;20127;-74
2023/11/05 02:32:23;;;;;;;3.80;1.10;;;;;;;8.26;100.00;94745.69;6101621;19;20011;-73
2023/11/05 02:34:23;;;;;;;5.13;1.95;;;;;;;8.35;100.00;94745.75;6101110;19;20003;-74
2023/11/05 02:36:24;;;;;;;4.78;1.60;;;;;;;8.29;100.00;94740.06;6100513;19;19999;-74
2023/11/05 02:38:24;;;;;;;3.92;1.70;;;;;;;8.29;100.00;94751.09;6101958;19;20435;-74
2023/11/05 02:40:25;;;;;;;1.73;0.95;;;;;;;8.28;100.00;94749.56;6101059;19;20010;-74
2023/11/05 02:42:25;;;;;;;4.25;1.92;;;;;;;8.32;100.00;94746.66;6101339;19;20023;-74
2023/11/05 02:44:25;;;;;;;3.00;1.30;;;;;;;8.31;100.00;94745.88;6100913;19;20006;-74
2023/11/05 02:46:26;;;;;;;4.47;1.85;;;;;;;8.36;100.00;94744.56;6100206;19;20019;-74
2023/11/05 02:48:26;;;;;;;3.95;1.70;;;;;;;8.29;100.00;94737.31;6100584;19;20378;-74
2023/11/05 02:50:26;;;;;;;2.58;1.42;;;;;;;8.33;100.00;94732.41;6101525;19;20003;-74
2023/11/05 02:52:27;;;;;;;2.53;1.48;;;;;;;8.36;100.00;94739.81;6100473;19;19998;-74
2023/11/05 02:54:29;;;;;;;2.95;1.17;;;;;;;8.32;100.00;94738.38;6100368;19;20029;-74
2023/11/05 02:56:29;;;;;;;4.95;2.17;;;;;;;8.29;100.00;94723.53;6101478;19;20229;-74
2023/11/05 02:58:30;;;;;;;4.45;1.25;;;;;;;8.25;100.00;94731.16;6100374;19;20241;-74
2023/11/05 03:00:33;;;;;;;1.67;1.10;;;;;;;8.30;100.00;94733.34;6101308;19;20034;-74
2023/11/05 03:02:35;;;;;;;3.13;1.50;;;;;;;8.25;100.00;94733.91;6100785;19;20003;-74
2023/11/05 03:04:35;;;;;;;2.20;1.23;;;;;;;8.29;100.00;94729.06;6100546;19;20006;-74
2023/11/05 03:06:35;;;;;;;2.90;1.20;;;;;;;8.26;100.00;94729.19;6100716;19;20017;-74
2023/11/05 03:08:36;;;;;;;1.52;1.13;;;;;;;8.19;100.00;94732.97;6100652;19;20013;-74
2023/11/05 03:10:36;;;;;;;2.22;1.20;;;;;;;8.15;100.00;94735.09;6101140;19;20006;-74
2023/11/05 03:12:37;;;;;;;1.75;1.05;;;;;;;8.12;100.00;94723.03;6100082;19;20094;-74
2023/11/05 03:14:37;;;;;;;0.80;0.80;;;;;;;8.14;100.00;94725.31;6099972;19;21136;-74
2023/11/05 03:16:38;;;;;;;1.67;1.00;;;;;;;8.12;100.00;94723.03;6100474;19;20007;-74
2023/11/05 03:18:39;;;;;;;2.75;0.90;;;;;;;8.13;100.00;94719.03;6100042;19;20006;-74
2023/11/05 03:20:40;;;;;;;1.85;0.82;;;;;;;8.20;100.00;94723.50;6100957;19;20022;-73
2023/11/05 03:22:41;;;;;;;1.30;0.88;;;;;;;8.26;100.00;94718.16;6100152;19;20011;-74
2023/11/05 03:24:41;;;;;;;0.90;0.80;;;;;;;8.23;100.00;94722.59;6100155;19;20031;-74
2023/11/05 03:26:41;;;;;;;1.70;0.90;;;;;;;8.21;100.00;94725.03;6099809;19;20006;-74
2023/11/05 03:28:42;;;;;;;1.02;0.90;;;;;;;8.22;100.00;94726.56;6090576;19;20513;-74
2023/11/05 03:30:42;;;;;;;0.70;0.65;;;;;;;8.21;100.00;94721.53;6101439;19;20868;-74
2023/11/05 03:32:42;;;;;;;1.10;0.70;;;;;;;8.19;100.00;94738.47;6100568;19;21058;-74
2023/11/05 03:34:44;;;;;;;0.65;0.65;;;;;;;8.15;100.00;94733.13;6099554;19;20408;-74
2023/11/05 03:36:45;;;;;;;2.15;0.85;;;;;;;8.24;100.00;94729.63;6100432;19;20045;-73
2023/11/05 03:38:46;;;;;;;1.13;0.70;;;;;;;8.24;100.00;94723.38;6100933;19;20357;-74
2023/11/05 03:40:46;;;;;;;1.50;0.63;;;;;;;8.23;100.00;94722.59;6100021;19;20094;-73
2023/11/05 03:42:47;;;;;;;0.77;0.68;;;;;;;8.23;100.00;94735.59;6099413;19;20401;-74
2023/11/05 03:44:47;;;;;;;0.95;0.60;;;;;;;8.18;100.00;94726.69;6099534;19;20478;-73
2023/11/05 03:46:48;;;;;;;0.60;0.57;;;;;;;8.14;100.00;94726.09;6099400;19;20562;-74
2023/11/05 03:48:48;;;;;;;1.77;0.70;;;;;;;8.20;100.00;94726.25;6099112;19;20017;-74
2023/11/05 03:50:48;;;;;;;0.57;0.57;;;;;;;8.20;100.00;94717.25;6100574;19;20444;-74
2023/11/05 03:52:49;;;;;;;1.33;0.80;;;;;;;8.22;100.00;94718.31;6100061;19;20021;-74
2023/11/05 03:54:51;;;;;;;4.82;0.80;;;;;;;8.22;100.00;94715.56;6098363;19;20343;-74
2023/11/05 03:56:51;;;;;;;1.37;0.60;;;;;;;8.22;100.00;94718.31;6100239;19;20006;-74
2023/11/05 03:58:51;;;;;;;3.40;1.05;;;;;;;8.27;100.00;94723.22;6100163;19;20535;-74
2023/11/05 04:00:52;;;;;;;2.05;0.82;;;;;;;8.32;100.00;94717.13;6100277;19;20018;-74
2023/11/05 04:02:52;;;;;;;0.63;0.63;;;;;;;8.36;100.00;94715.03;6098471;19;20003;-74
2023/11/05 04:04:53;;;;;;;1.83;0.80;;;;;;;8.31;100.00;94714.81;6098041;19;20050;-74
2023/11/05 04:06:56;;;;;;;1.10;0.60;;;;;;;8.39;100.00;94714.13;6099666;19;20366;-74
2023/11/05 04:08:57;;;;;;;2.78;0.73;;;;;;;8.42;100.00;94724.22;6099637;19;20007;-74
2023/11/05 04:10:57;;;;;;;0.60;0.57;;;;;;;8.41;100.00;94727.44;6099121;19;20078;-74
2023/11/05 04:12:57;;;;;;;0.68;0.68;;;;;;;8.43;100.00;94725.75;6100008;19;20038;-73
2023/11/05 04:14:58;;;;;;;0.63;0.60;;;;;;;8.43;100.00;94709.22;6098363;19;20006;-74
2023/11/05 04:16:58;;;;;;;0.77;0.77;;;;;;;8.36;100.00;94703.25;6100241;19;20011;-74
2023/11/05 04:18:59;;;;;;;0.85;0.55;;;;;;;8.32;100.00;94708.09;6100800;19;20013;-74
2023/11/05 04:20:59;;;;;;;1.38;0.70;;;;;;;8.35;100.00;94699.69;6100022;19;20023;-74
2023/11/05 04:22:59;;;;;;;2.80;0.80;;;;;;;8.38;100.00;94703.56;6099332;19;20017;-74
2023/11/05 04:25:00;;;;;;;1.45;1.00;;;;;;;8.37;100.00;94693.75;6099549;19;20014;-74
2023/11/05 04:27:01;;;;;;;1.40;0.80;;;;;;;8.35;100.00;94699.69;6100127;19;20003;-74
2023/11/05 04:29:01;;;;;;;0.60;0.60;;;;;;;8.33;100.00;94695.84;6095416;19;20013;-74
2023/11/05 04:31:02;;;;;;;1.25;0.70;;;;;;;8.27;100.00;94692.91;6093149;19;20090;-74
2023/11/05 04:33:02;;;;;;;1.40;0.82;;;;;;;8.29;100.00;94701.50;6093004;19;20329;-74
2023/11/05 04:35:02;;;;;;;0.93;0.70;;;;;;;8.25;100.00;94692.63;6091724;19;20439;-74
2023/11/05 04:37:03;;;;;;;0.88;0.70;;;;;;;8.22;100.00;94685.28;6092806;19;20010;-74
2023/11/05 04:39:03;;;;;;;0.90;0.80;;;;;;;8.25;100.00;94681.59;6093182;19;20006;-74
2023/11/05 04:41:04;;;;;;;2.05;0.85;;;;;;;8.26;100.00;94682.38;6092885;19;20463;-74
2023/11/05 04:43:04;;;;;;;1.80;0.90;;;;;;;8.21;100.00;94678.22;6092844;19;20022;-74
2023/11/05 04:45:05;;;;;;;0.93;0.80;;;;;;;8.24;100.00;94674.56;6091491;19;20028;-74
2023/11/05 04:47:05;;;;;;;2.20;0.88;;;;;;;8.23;100.00;94672.25;6093041;19;20026;-74
2023/11/05 04:49:06;;;;;;;2.17;0.90;;;;;;;8.27;100.00;94678.38;6097929;19;20074;-74
2023/11/05 04:51:09;;;;;;;1.40;0.90;;;;;;;8.22;100.00;94679.75;6098066;19;20006;-74
2023/11/05 04:53:09;;;;;;;0.77;0.77;;;;;;;8.16;100.00;94670.56;6098080;19;20794;-74
2023/11/05 04:55:09;;;;;;;1.80;0.80;;;;;;;8.14;100.00;94662.00;6097266;19;20296;-74
2023/11/05 04:57:10;;;;;;;2.50;0.80;;;;;;;8.11;100.00;94668.41;6098216;19;20031;-74
2023/11/05 04:59:10;;;;;;;2.15;0.80;;;;;;;8.07;100.00;94667.78;6098957;19;20033;-74
2023/11/05 05:01:10;;;;;;;1.20;0.90;;;;;;;7.99;100.00;94669.28;6098144;19;20006;-74
2023/11/05 05:03:11;;;;;;;1.00;0.70;;;;;;;7.99;100.00;94670.03;6095885;19;20179;-74
2023/11/05 05:05:11;;;;;;;0.60;0.60;;;;;;;7.97;100.00;94677.22;6096729;19;20010;-74
2023/11/05 05:07:11;;;;;;;1.30;0.70;;;;;;;7.96;100.00;94668.22;6098304;19;20098;-74
2023/11/05 05:09:12;;;;;;;0.80;0.80;;;;;;;7.89;100.00;94683.00;6098136;19;20019;-74
2023/11/05 05:11:13;;;;;;;1.65;1.05;;;;;;;7.91;100.00;94677.03;6098817;19;20338;-74
2023/11/05 05:13:14;;;;;;;0.93;0.80;;;;;;;7.88;100.00;94681.47;6097976;19;20026;-74
2023/11/05 05:15:14;;;;;;;0.70;0.70;;;;;;;7.94;100.00;94684.38;6096431;19;20079;-74
2023/11/05 05:17:15;;;;;;;0.60;0.60;;;;;;;7.99;100.00;94674.78;6097887;19;20008;-74
2023/11/05 05:19:16;;;;;;;2.42;0.80;;;;;;;8.00;100.00;94663.31;6097768;19;20367;-74
2023/11/05 05:21:16;;;;;;;3.67;0.93;;;;;;;8.06;100.00;94669.00;6098139;19;20367;-74
2023/11/05 05:23:16;;;;;;;2.17;0.90;;;;;;;8.04;100.00;94669.47;6097117;19;20370;-74
2023/11/05 05:25:17;;;;;;;2.28;0.80;;;;;;;8.09;100.00;94662.56;6096013;19;20365;-74
2023/11/05 05:27:17;;;;;;;0.80;0.70;;;;;;;8.05;100.00;94653.72;6096786;19;20014;-74
2023/11/05 05:29:18;;;;;;;0.68;0.60;;;;;;;8.02;100.00;94640.84;6100013;19;20007;-74
2023/11/05 05:31:18;;;;;;;1.10;0.80;;;;;;;7.99;100.00;94647.25;6103086;19;20052;-74
2023/11/05 05:33:19;;;;;;;2.22;0.80;;;;;;;7.96;100.00;94648.19;6102922;19;20007;-74
2023/11/05 05:35:19;;;;;;;2.05;0.85;;;;;;;7.99;100.00;94637.00;6101526;19;20010;-74
2023/11/05 05:37:20;;;;;;;0.73;0.73;;;;;;;8.02;100.00;94627.84;6102889;19;20083;-74
2023/11/05 05:39:20;;;;;;;0.88;0.65;;;;;;;8.04;100.00;94627.41;6103290;19;20335;-74
2023/11/05 05:41:21;;;;;;;3.10;0.90;;;;;;;8.02;100.00;94638.84;6103370;19;20079;-74
2023/11/05 05:43:22;;;;;;;1.05;0.82;;;;;;;8.02;100.00;94630.59;6101832;19;20008;-74
2023/11/05 05:45:22;;;;;;;2.08;0.85;;;;;;;8.00;100.00;94633.03;6102226;19;20010;-74
2023/11/05 05:47:23;;;;;;;1.67;0.70;;;;;;;8.04;100.00;94636.44;6103089;19;20006;-74
2023/11/05 05:49:23;;;;;;;0.80;0.70;;;;;;;8.08;100.00;94634.28;6102439;19;20648;-74
2023/11/05 05:51:24;;;;;;;2.35;1.10;;;;;;;8.07;100.00;94632.75;6102245;19;20665;-74
2023/11/05 05:53:24;;;;;;;4.47;1.20;;;;;;;8.09;100.00;94644.06;6102456;19;20007;-74
2023/11/05 05:55:24;;;;;;;1.80;0.70;;;;;;;8.09;100.00;94643.31;6101161;19;20006;-74
2023/11/05 05:57:25;;;;;;;3.63;0.70;;;;;;;8.08;100.00;94642.53;6102827;19;19999;-74
2023/11/05 05:59:26;;;;;;;0.60;0.60;;;;;;;8.03;100.00;94639.63;6100655;19;20034;-74
2023/11/05 06:01:26;;;;;;;1.98;0.90;;;;;;;8.01;100.00;94642.81;6101390;19;20013;-74
2023/11/05 06:03:26;;;;;;;1.83;0.88;;;;;;;8.02;100.00;94649.09;6102437;19;20002;-74
2023/11/05 06:05:27;;;;;;;1.30;0.77;;;;;;;8.00;100.00;94643.28;6100670;19;20014;-74
2023/11/05 06:07:31;;;;;;;0.88;0.77;;;;;;;7.95;100.00;94646.66;6102430;19;20010;-74
2023/11/05 06:09:31;;;;;;;3.63;0.80;;;;;;;7.94;100.00;94645.09;6101834;19;20016;-74
2023/11/05 06:11:32;;;;;;;0.93;0.77;;;;;;;7.93;100.00;94647.06;6102081;19;20477;-74
2023/11/05 06:13:33;;;;;;;1.13;0.80;;;;;;;8.04;100.00;94643.91;6102175;19;20006;-74
2023/11/05 06:15:33;;;;;;;2.95;0.80;;;;;;;8.02;100.00;94649.09;6101908;19;20031;-74
2023/11/05 06:17:34;;;;;;;0.82;0.80;;;;;;;8.01;100.00;94651.06;6101805;19;20532;-74
2023/11/05 06:19:34;;;;;;;2.47;0.70;;;;;;;8.00;100.00;94652.31;6100659;19;20383;-74
2023/11/05 06:21:35;;;;;;;1.67;0.60;;;;;;;7.99;100.00;94652.75;6101457;19;20305;-74
2023/11/05 06:23:35;;;;;;;3.55;0.88;;;;;;;8.00;100.00;94646.03;6101908;19;20013;-74
2023/11/05 06:25:36;;;;;;;1.52;0.60;;;;;;;7.98;100.00;94634.72;6099454;19;20002;-74
2023/11/05 06:27:37;;;;;;;0.63;0.63;;;;;;;7.98;100.00;94638.25;6101685;19;20003;-74
2023/11/05 06:29:38;;;;;;;0.82;0.60;;;;;;;7.96;100.00;94646.19;6102106;19;20038;-74
2023/11/05 06:31:38;;;;;;;1.08;0.80;;;;;;;7.94;100.00;94634.84;6099059;19;20513;-74
2023/11/05 06:33:38;;;;;;;2.35;0.90;;;;;;;7.89;100.00;94632.69;6101846;19;20021;-74
2023/11/05 06:35:39;;;;;;;2.38;0.88;;;;;;;7.92;100.00;94645.53;6100362;19;20037;-74
2023/11/05 06:37:40;;;;;;;2.38;1.02;;;;;;;7.89;100.00;94638.97;6101221;19;20412;-74
2023/11/05 06:39:40;;;;;;;2.38;1.00;;;;;;;7.88;100.00;94636.69;6101628;19;20011;-74
2023/11/05 06:41:40;;;;;;;1.52;0.70;;;;;;;7.92;100.00;94642.03;6094576;19;20081;-74
2023/11/05 06:43:41;;;;;;;2.17;0.82;;;;;;;7.97;100.00;94638.69;6098433;19;20463;-74
2023/11/05 06:45:41;;;;;;;0.70;0.70;;;;;;;7.94;100.00;94639.59;6098228;19;20034;-74
2023/11/05 06:47:42;;;;;;;0.80;0.77;;;;;;;7.96;100.00;94646.19;6098997;19;20045;-74
2023/11/05 06:49:42;;;;;;;0.80;0.70;;;;;;;8.01;100.00;94644.81;6100666;19;20094;-74
2023/11/05 06:51:43;;;;;;;3.28;0.90;;;;;;;8.01;100.00;94642.81;6100095;19;20021;-74
2023/11/05 06:53:43;;;;;;;1.77;0.73;;;;;;;8.01;100.00;94644.81;6099870;19;20468;-74
2023/11/05 06:55:44;;;;;;;1.38;0.93;;;;;;;8.01;100.00;94647.56;6100003;19;20031;-74
2023/11/05 06:57:44;;;;;;;2.33;0.90;;;;;;;8.02;100.00;94641.59;6099837;19;20057;-74
2023/11/05 06:59:44;;;;;;;3.35;0.73;;;;;;;8.12;100.00;94645.94;6096871;19;20003;-74
2023/11/05 07:01:47;;;;;;;2.60;0.73;;;;;;;8.19;100.00;94644.84;6100494;19;20007;-74
2023/11/05 07:03:47;;;;;;;1.52;0.70;;;;;;;8.20;100.00;94640.91;6099840;19;20006;-74
2023/11/05 07:05:47;;;;;;;2.67;0.80;;;;;;;8.22;100.00;94646.72;6098830;19;20005;-74
2023/11/05 07:07:48;;;;;;;1.23;0.60;;;;;;;8.24;100.00;94640.75;6099365;19;20009;-74
2023/11/05 07:09:50;;;;;;;1.65;0.80;;;;;;;8.25;100.00;94636.78;6099679;19;20003;-74
2023/11/05 07:11:50;;;;;;;1.05;0.70;;;;;;;8.27;100.00;94637.06;6098496;19;20034;-74
2023/11/05 07:13:52;;;;;;;1.63;0.60;;;;;;;8.35;100.00;94635.59;6098623;19;19998;-74
2023/11/05 07:15:52;;;;;;;2.10;0.83;;;;;;;8.31;100.00;94634.97;6100255;19;20003;-74
2023/11/05 07:17:54;;;;;;;1.10;0.80;;;;;;;8.33;100.00;94633.28;6101258;19;20267;-74
2023/11/05 07:19:54;;;;;;;0.57;0.57;;;;;;;8.36;100.00;94628.88;6099890;19;20362;-74
2023/11/05 07:21:54;;;;;;;2.08;0.80;;;;;;;8.41;100.00;94631.78;6099967;19;20031;-74
2023/11/05 07:23:55;;;;;;;2.42;1.10;;;;;;;8.42;100.00;94649.06;6100635;19;20358;-74
2023/11/05 07:25:56;;;;;;;0.73;0.60;;;;;;;8.44;100.00;94638.38;6098758;19;20591;-74
2023/11/05 07:27:58;;;;;;;1.35;0.75;;;;;;;8.39;100.00;94638.97;6100161;19;20018;-74
2023/11/05 07:29:59;;;;;;;0.57;0.55;;;;;;;8.44;100.00;94643.91;6100770;19;20006;-74
2023/11/05 07:31:59;;;;;;;2.35;0.93;;;;;;;8.47;100.00;94631.94;6100338;19;20042;-74
2023/11/05 07:33:59;;;;;;;0.90;0.70;;;;;;;8.54;100.00;94642.69;6099046;19;20082;-74
2023/11/05 07:36:01;;;;;;;0.75;0.50;;;;;;;8.57;100.00;94630.72;6098620;19;20015;-74
2023/11/05 07:38:01;;;;;;;2.90;0.80;;;;;;;8.62;100.00;94626.63;6099774;19;19999;-74
2023/11/05 07:40:03;;;;;;;1.35;0.60;;;;;;;8.64;100.00;94635.19;6099593;19;20005;-74
2023/11/05 07:42:03;;;;;;;1.10;0.80;;;;;;;8.63;100.00;94642.69;6097213;19;20080;-74
2023/11/05 07:44:04;;;;;;;1.90;0.70;;;;;;;8.70;100.00;94644.38;6099422;19;20007;-74
2023/11/05 07:46:07;;;;;;;1.58;0.95;;;;;;;8.86;100.00;94635.06;6097941;19;20371;-74
2023/11/05 07:48:07;;;;;;;;;;;;;;;8.92;100.00;94636.72;6095449;19;20021;-74
2023/11/05 07:50:10;;;;;;;2.42;1.02;;;;;;;8.90;100.00;94633.66;6099441;19;19910;-74
2023/11/05 07:52:10;;;;;;;1.33;0.88;;;;;;;8.90;100.00;94630.91;6099136;19;20010;-74
2023/11/05 07:54:11;;;;;;;1.40;0.98;;;;;;;8.84;100.00;94629.22;6099950;19;20013;-74
2023/11/05 07:56:11;;;;;;;1.15;0.85;;;;;;;8.88;100.00;94621.56;6096523;19;20502;-74
2023/11/05 07:58:12;;;;;;;2.63;1.00;;;;;;;8.95;100.00;94635.81;6097080;19;20036;-74
2023/11/05 08:00:17;;;;;;;2.00;1.58;;;;;;;8.99;100.00;94635.63;6099735;19;20009;-74
2023/11/05 08:02:18;;;;;;;2.05;0.93;;;;;;;8.91;100.00;94637.94;6099256;19;20041;-74
2023/11/05 08:04:20;;;;;;;2.10;0.70;;;;;;;8.95;100.00;94649.59;6099778;19;19994;-74
2023/11/05 08:06:21;;;;;;;1.30;0.70;;;;;;;8.92;100.00;94641.47;6097236;19;22822;-74
2023/11/05 08:08:21;;;;;;;0.50;0.50;;;;;;;8.97;100.00;94644.38;6094896;19;20351;-74
2023/11/05 08:10:21;;;;;;;0.88;0.70;;;;;;;8.99;100.00;94639.16;6092210;19;20081;-74
2023/11/05 08:12:22;;;;;;;2.65;0.60;;;;;;;9.02;100.00;94645.75;6091198;19;20478;-74
2023/11/05 08:14:22;;;;;;;0.55;0.55;;;;;;;8.98;100.00;94640.38;6097133;19;20006;-74
2023/11/05 08:16:22;;;;;;;0.88;0.60;;;;;;;9.01;100.00;94630.41;6097127;19;20010;-74
2023/11/05 08:18:23;;;;;;;2.15;0.80;;;;;;;9.08;100.00;94645.91;6092787;19;20006;-74
2023/11/05 08:20:23;;;;;;;1.75;0.65;;;;;;;9.08;100.00;94645.91;6097664;19;20007;-74
2023/11/05 08:22:23;;;;;;;0.70;0.60;;;;;;;9.13;100.00;94637.00;6099204;19;20340;-74
2023/11/05 08:24:24;;;;;;;1.38;1.27;;;;;;;9.16;100.00;94642.38;6104722;19;20387;-74
2023/11/05 08:26:24;;;;;;;0.80;0.70;;;;;;;9.22;100.00;94634.25;6102679;19;20372;-74
2023/11/05 08:28:25;;;;;;;0.75;0.65;;;;;;;9.29;100.00;94637.44;6096840;19;20196;-74
2023/11/05 08:30:25;;;;;;;1.55;0.60;;;;;;;9.32;100.00;94635.00;6104587;19;20017;-74
2023/11/05 08:32:25;;;;;;;0.82;0.80;;;;;;;9.30;100.00;94629.94;6103454;19;20019;-74
2023/11/05 08:34:26;;;;;;;1.67;0.80;;;;;;;9.29;100.00;94636.69;6099346;19;20010;-74
2023/11/05 08:36:26;;;;;;;1.17;0.77;;;;;;;9.33;100.00;94631.00;6097491;19;20443;-74
2023/11/05 08:38:27;;;;;;;1.25;0.60;;;;;;;9.32;100.00;94646.03;6097990;19;20003;-74
2023/11/05 08:40:27;;;;;;;1.13;0.73;;;;;;;9.36;100.00;94643.88;6096499;19;20087;-74
2023/11/05 08:42:27;;;;;;;2.05;1.00;;;;;;;9.39;100.00;94649.22;6099020;19;20009;-74
2023/11/05 08:44:28;;;;;;;2.33;1.20;;;;;;;9.43;100.00;94651.81;6097767;19;20010;-74
2023/11/05 08:46:29;;;;;;;2.55;1.20;;;;;;;9.47;100.00;94660.72;6097109;19;20761;-74
2023/11/05 08:48:29;;;;;;;2.53;1.20;;;;;;;9.47;100.00;94667.00;6098967;19;20003;-74
2023/11/05 08:50:30;;;;;;;1.23;0.80;;;;;;;9.51;100.00;94661.31;6097576;19;20029;-74
2023/11/05 08:52:31;;;;;;;2.78;1.15;;;;;;;9.52;100.00;94657.34;6097810;19;20007;-74
2023/11/05 08:54:33;;;;;;;1.00;0.70;;;;;;;9.57;100.00;94662.22;6096617;19;20305;-74
2023/11/05 08:56:33;;;;;;;3.30;0.90;;;;;;;9.59;100.00;94659.75;6102596;19;20023;-74
2023/11/05 08:58:33;;;;;;;0.85;0.60;;;;;;;9.59;100.00;94673.53;6104251;19;20350;-74
2023/11/05 09:00:34;;;;;;;2.03;0.63;;;;;;;9.62;100.00;94666.34;6103883;19;20007;-74
2023/11/05 09:02:35;;;;;;;0.60;0.60;;;;;;;9.68;100.00;94676.31;6104452;19;19999;-74
2023/11/05 09:04:36;;;;;;;1.80;0.70;;;;;;;9.69;100.00;94677.06;6102260;19;20009;-74
2023/11/05 09:06:36;;;;;;;2.03;0.57;;;;;;;9.71;100.00;94672.63;6093487;19;20491;-74
2023/11/05 09:08:40;;;;;;;1.13;0.60;;;;;;;9.74;100.00;94684.72;6098516;19;20007;-74
2023/11/05 09:10:40;;;;;;;1.52;0.50;;;;;;;9.81;100.00;94689.91;6103650;19;20080;-74
2023/11/05 09:12:40;;;;;;;1.90;0.60;;;;;;;9.85;100.00;94696.81;6101822;19;20007;-74
2023/11/05 09:14:42;;;;;;;3.55;0.85;;;;;;;9.88;100.00;94691.59;6101043;19;20006;-74
2023/11/05 09:16:43;;;;;;;0.60;0.60;;;;;;;9.93;100.00;94696.47;6102330;19;20006;-74
2023/11/05 09:18:43;;;;;;;2.10;1.13;;;;;;;9.92;100.00;94690.16;6102587;19;20303;-74
2023/11/05 09:20:43;;;;;;;0.50;0.50;;;;;;;9.91;100.00;94694.16;6102661;19;20002;-74
2023/11/05 09:22:44;;;;;;;0.63;0.60;;;;;;;9.93;100.00;94699.22;6101191;19;19999;-74
2023/11/05 09:24:45;;;;;;;1.35;0.77;;;;;;;9.96;100.00;94701.84;6101651;19;20003;-74
2023/11/05 09:26:45;;;;;;;1.98;0.77;;;;;;;10.03;100.00;94709.78;6102227;19;20014;-74
2023/11/05 09:28:46;;;;;;;2.83;0.70;;;;;;;10.03;100.00;94707.03;6098202;19;20010;-74